createdAt,value
2018-02-15T00:01:28.494Z,7.72
2018-02-15T00:03:31.186Z,8.85
2018-02-15T00:05:34.594Z,9.30
2018-02-15T00:07:38.066Z,8.30
2018-02-15T00:09:40.725Z,9.25
2018-02-15T00:11:43.421Z,8.55
2018-02-15T00:13:46.049Z,8.77
2018-02-15T00:15:48.687Z,8.40
2018-02-15T00:17:51.399Z,9.93
2018-02-15T00:19:54.769Z,8.70
2018-02-15T00:21:57.410Z,8.43
2018-02-15T00:24:00.813Z,8.10
2018-02-15T00:26:03.523Z,8.60
2018-02-15T00:28:06.974Z,9.30
2018-02-15T00:30:09.736Z,8.90
2018-02-15T00:32:13.101Z,8.37
2018-02-15T00:34:15.704Z,8.80
2018-02-15T00:36:18.341Z,8.83
2018-02-15T00:38:21.729Z,8.40
2018-02-15T00:40:24.355Z,9.20
2018-02-15T00:42:27.759Z,9.35
2018-02-15T00:44:31.210Z,8.52
2018-02-15T00:46:33.909Z,9.23
2018-02-15T00:48:36.541Z,8.90
2018-02-15T00:50:39.140Z,9.50
2018-02-15T00:52:41.771Z,8.77
2018-02-15T00:54:45.696Z,9.30
2018-02-15T00:56:49.101Z,8.53
2018-02-15T00:58:52.500Z,9.25
2018-02-15T01:00:55.096Z,9.90
2018-02-15T01:02:57.809Z,9.55
2018-02-15T01:05:01.201Z,9.13
2018-02-15T01:07:03.924Z,9.17
2018-02-15T01:09:07.324Z,8.88
2018-02-15T01:11:09.931Z,8.20
2018-02-15T01:13:13.300Z,8.35
2018-02-15T01:15:16.039Z,7.93
2018-02-15T01:17:19.563Z,9.18
2018-02-15T01:19:22.975Z,9.70
2018-02-15T01:21:26.385Z,8.60
2018-02-15T01:23:29.831Z,8.40
2018-02-15T01:25:32.499Z,8.07
2018-02-15T01:27:35.198Z,9.10
2018-02-15T01:29:38.665Z,8.50
2018-02-15T01:31:41.295Z,8.83
2018-02-15T01:33:43.914Z,8.73
2018-02-15T01:35:47.326Z,9.47
2018-02-15T01:37:50.727Z,8.13
2018-02-15T01:39:54.141Z,8.60
2018-02-15T01:41:57.496Z,8.90
2018-02-15T01:44:00.134Z,8.82
2018-02-15T01:46:02.765Z,9.17
2018-02-15T01:48:05.375Z,9.65
2018-02-15T01:50:08.050Z,9.45
2018-02-15T01:52:11.458Z,9.07
2018-02-15T01:54:14.872Z,8.75
2018-02-15T01:56:18.290Z,8.68
2018-02-15T01:58:22.004Z,8.82
2018-02-15T02:00:25.424Z,9.25
2018-02-15T02:02:28.816Z,8.85
2018-02-15T02:04:31.432Z,8.77
2018-02-15T02:06:35.512Z,9.15
2018-02-15T02:08:38.266Z,8.93
2018-02-15T02:10:40.902Z,8.77
2018-02-15T02:12:43.560Z,8.70
2018-02-15T02:14:46.929Z,8.75
2018-02-15T02:16:49.539Z,8.60
2018-02-15T02:18:52.265Z,9.45
2018-02-15T02:20:55.667Z,9.75
2018-02-15T02:22:58.374Z,8.90
2018-02-15T02:25:01.732Z,9.03
2018-02-15T02:27:04.367Z,8.80
2018-02-15T02:29:07.756Z,9.77
2018-02-15T02:31:10.397Z,8.90
2018-02-15T02:33:13.747Z,8.77
2018-02-15T02:35:16.501Z,7.90
2018-02-15T02:37:19.930Z,9.60
2018-02-15T02:39:22.562Z,9.00
2018-02-15T02:41:25.216Z,9.98
2018-02-15T02:43:28.649Z,9.73
2018-02-15T02:45:31.381Z,9.73
2018-02-15T02:47:34.121Z,9.83
2018-02-15T02:49:36.925Z,9.15
2018-02-15T02:51:40.320Z,9.40
2018-02-15T02:53:42.936Z,9.35
2018-02-15T02:55:45.597Z,9.00
2018-02-15T02:57:48.198Z,8.60
2018-02-15T02:59:50.806Z,9.40
2018-02-15T03:01:54.238Z,8.15
2018-02-15T03:03:57.645Z,8.38
2018-02-15T03:06:01.065Z,8.57
2018-02-15T03:08:04.480Z,9.30
2018-02-15T03:10:07.998Z,9.05
2018-02-15T03:12:11.531Z,9.47
2018-02-15T03:14:14.208Z,8.52
2018-02-15T03:16:17.622Z,8.80
2018-02-15T03:18:21.141Z,9.40
2018-02-15T03:20:24.501Z,9.50
2018-02-15T03:22:27.102Z,7.75
2018-02-15T03:24:29.741Z,9.32
2018-02-15T03:26:33.103Z,9.57
2018-02-15T03:28:35.756Z,8.68
2018-02-15T03:30:39.173Z,9.37
2018-02-15T03:32:41.803Z,8.47
2018-02-15T03:34:44.481Z,9.52
2018-02-15T03:36:48.078Z,9.48
2018-02-15T03:38:51.395Z,8.23
2018-02-15T03:40:54.804Z,8.63
2018-02-15T03:42:58.177Z,9.90
2018-02-15T03:45:00.817Z,9.60
2018-02-15T03:47:03.481Z,9.20
2018-02-15T03:49:06.091Z,9.05
2018-02-15T03:51:09.476Z,9.77
2018-02-15T03:53:12.881Z,9.23
2018-02-15T03:55:15.633Z,10.13
2018-02-15T03:57:19.038Z,9.30
2018-02-15T03:59:22.566Z,8.53
2018-02-15T04:01:26.081Z,9.27
2018-02-15T04:03:29.458Z,9.50
2018-02-15T04:05:32.048Z,8.93
2018-02-15T04:07:34.696Z,9.73
2018-02-15T04:09:37.379Z,8.60
2018-02-15T04:11:40.722Z,9.07
2018-02-15T04:13:43.346Z,8.90
2018-02-15T04:15:46.112Z,9.35
2018-02-15T04:17:48.693Z,9.23
2018-02-15T04:19:51.303Z,10.05
2018-02-15T04:21:53.926Z,10.07
2018-02-15T04:23:56.547Z,8.63
2018-02-15T04:25:59.173Z,9.60
2018-02-15T04:28:01.868Z,9.95
2018-02-15T04:30:05.322Z,9.40
2018-02-15T04:32:07.946Z,9.30
2018-02-15T04:34:10.678Z,8.83
2018-02-15T04:36:14.193Z,10.03
2018-02-15T04:38:17.589Z,10.60
2018-02-15T04:40:21.024Z,11.10
2018-02-15T04:42:24.437Z,9.48
2018-02-15T04:44:27.948Z,9.82
2018-02-15T04:46:31.321Z,10.27
2018-02-15T04:48:33.952Z,9.60
2018-02-15T04:50:37.354Z,8.90
2018-02-15T04:52:40.022Z,10.38
2018-02-15T04:54:42.678Z,10.15
2018-02-15T04:56:45.366Z,10.30
2018-02-15T04:58:48.751Z,9.17
2018-02-15T05:00:51.389Z,10.85
2018-02-15T05:02:53.994Z,9.97
2018-02-15T05:04:56.616Z,9.80
2018-02-15T05:06:59.221Z,9.97
2018-02-15T05:09:01.867Z,8.67
2018-02-15T05:11:05.279Z,9.70
2018-02-15T05:13:08.792Z,9.47
2018-02-15T05:15:12.152Z,10.57
2018-02-15T05:17:15.614Z,9.67
2018-02-15T05:19:19.138Z,10.45
2018-02-15T05:21:22.653Z,9.20
2018-02-15T05:23:26.038Z,10.40
2018-02-15T05:25:28.661Z,11.00
2018-02-15T05:27:32.077Z,10.10
2018-02-15T05:29:35.508Z,9.73
2018-02-15T05:31:38.112Z,10.83
2018-02-15T05:33:40.788Z,9.50
2018-02-15T05:35:44.403Z,10.03
2018-02-15T05:37:47.827Z,10.50
2018-02-15T05:39:51.199Z,10.90
2018-02-15T05:41:53.852Z,10.33
2018-02-15T05:43:56.452Z,11.00
2018-02-15T05:45:59.114Z,11.00
2018-02-15T05:48:01.813Z,11.20
2018-02-15T05:50:05.183Z,10.30
2018-02-15T05:52:07.906Z,10.73
2018-02-15T05:54:10.513Z,10.73
2018-02-15T05:56:13.140Z,10.60
2018-02-15T05:58:15.804Z,11.27
2018-02-15T06:00:19.217Z,11.30
2018-02-15T06:02:22.588Z,10.73
2018-02-15T06:04:25.342Z,10.80
2018-02-15T06:06:28.752Z,11.23
2018-02-15T06:08:32.135Z,10.43
2018-02-15T06:10:34.764Z,10.83
2018-02-15T06:12:38.283Z,10.80
2018-02-15T06:14:41.663Z,11.33
2018-02-15T06:16:44.287Z,12.23
2018-02-15T06:18:47.709Z,9.73
2018-02-15T06:20:51.118Z,11.57
2018-02-15T06:22:54.539Z,12.00
2018-02-15T06:24:57.989Z,11.13
2018-02-15T06:27:00.649Z,11.77
2018-02-15T06:29:04.037Z,12.00
2018-02-15T06:31:06.762Z,10.53
2018-02-15T06:33:10.173Z,11.07
2018-02-15T06:35:13.529Z,11.50
2018-02-15T06:37:16.279Z,10.93
2018-02-15T06:39:19.694Z,12.13
2018-02-15T06:41:23.214Z,11.80
2018-02-15T06:43:26.733Z,10.70
2018-02-15T06:45:30.242Z,12.07
2018-02-15T06:47:33.632Z,11.40
2018-02-15T06:49:36.254Z,12.20
2018-02-15T06:51:39.670Z,11.65
2018-02-15T06:53:43.139Z,11.73
2018-02-15T06:55:45.743Z,11.10
2018-02-15T06:57:48.390Z,10.90
2018-02-15T06:59:51.069Z,12.03
2018-02-15T07:01:54.465Z,11.80
2018-02-15T07:03:57.180Z,10.70
2018-02-15T07:06:00.620Z,10.60
2018-02-15T07:08:03.313Z,10.50
2018-02-15T07:10:05.956Z,11.60
2018-02-15T07:12:08.610Z,11.32
2018-02-15T07:14:11.235Z,12.10
2018-02-15T07:16:13.892Z,13.20
2018-02-15T07:18:16.579Z,11.88
2018-02-15T07:20:20.025Z,11.70
2018-02-15T07:22:22.659Z,12.05
2018-02-15T07:24:25.290Z,10.93
2018-02-15T07:26:28.709Z,11.50
2018-02-15T07:28:32.321Z,11.50
2018-02-15T07:30:35.736Z,10.63
2018-02-15T07:32:39.189Z,12.70
2018-02-15T07:34:41.865Z,12.57
2018-02-15T07:36:44.514Z,12.40
2018-02-15T07:38:47.239Z,12.37
2018-02-15T07:40:50.681Z,13.10
2018-02-15T07:42:53.461Z,11.55
2018-02-15T07:44:56.153Z,11.90
2018-02-15T07:46:59.573Z,11.77
2018-02-15T07:49:03.079Z,11.57
2018-02-15T07:51:05.734Z,12.37
2018-02-15T07:53:08.335Z,12.80
2018-02-15T07:55:10.969Z,12.47
2018-02-15T07:57:14.325Z,13.20
2018-02-15T07:59:16.984Z,12.47
2018-02-15T08:01:20.508Z,12.50
2018-02-15T08:03:23.868Z,11.83
2018-02-15T08:05:26.480Z,12.57
2018-02-15T08:07:29.104Z,12.40
2018-02-15T08:09:32.485Z,13.00
2018-02-15T08:11:35.116Z,12.83
2018-02-15T08:13:38.480Z,12.10
2018-02-15T08:15:41.221Z,11.93
2018-02-15T08:17:44.842Z,12.80
2018-02-15T08:19:47.395Z,12.50
2018-02-15T08:21:50.044Z,12.63
2018-02-15T08:23:53.390Z,10.93
2018-02-15T08:25:56.020Z,11.97
2018-02-15T08:27:58.667Z,11.80
2018-02-15T08:30:01.335Z,12.20
2018-02-15T08:32:04.709Z,12.83
2018-02-15T08:34:07.379Z,11.57
2018-02-15T08:36:10.000Z,11.00
2018-02-15T08:38:12.644Z,11.60
2018-02-15T08:40:16.060Z,11.73
2018-02-15T08:42:19.402Z,11.30
2018-02-15T08:44:22.023Z,10.90
2018-02-15T08:46:24.664Z,11.87
2018-02-15T08:48:27.359Z,11.52
2018-02-15T08:50:30.872Z,11.63
2018-02-15T08:52:34.385Z,11.20
2018-02-15T08:54:37.774Z,11.20
2018-02-15T08:56:40.397Z,11.90
2018-02-15T08:58:43.095Z,11.70
2018-02-15T09:00:46.466Z,11.30
2018-02-15T09:02:49.205Z,12.60
2018-02-15T09:04:52.610Z,13.37
2018-02-15T09:06:55.197Z,13.03
2018-02-15T09:08:57.811Z,12.63
2018-02-15T09:11:01.224Z,12.87
2018-02-15T09:13:04.610Z,15.00
2018-02-15T09:15:07.265Z,13.47
2018-02-15T09:17:09.882Z,13.52
2018-02-15T09:19:12.492Z,13.60
2018-02-15T09:21:15.140Z,13.82
2018-02-15T09:23:17.837Z,13.70
2018-02-15T09:25:20.467Z,12.80
2018-02-15T09:27:23.217Z,13.25
2018-02-15T09:29:26.737Z,14.05
2018-02-15T09:31:30.137Z,13.70
2018-02-15T09:33:33.522Z,14.43
2018-02-15T09:35:36.178Z,12.82
2018-02-15T09:37:38.930Z,12.85
2018-02-15T09:39:41.537Z,12.67
2018-02-15T09:41:44.166Z,13.93
2018-02-15T09:43:47.661Z,13.57
2018-02-15T09:45:51.040Z,14.77
2018-02-15T09:47:53.674Z,13.33
2018-02-15T09:49:57.047Z,14.90
2018-02-15T09:52:00.427Z,13.20
2018-02-15T09:54:03.076Z,13.38
2018-02-15T09:56:05.735Z,13.57
2018-02-15T09:58:08.338Z,13.10
2018-02-15T10:00:11.013Z,13.67
2018-02-15T10:02:13.616Z,12.60
2018-02-15T10:04:16.384Z,13.73
2018-02-15T10:06:19.806Z,12.97
2018-02-15T10:08:23.316Z,12.80
2018-02-15T10:10:26.726Z,14.17
2018-02-15T10:12:30.137Z,13.67
2018-02-15T10:14:32.822Z,14.90
2018-02-15T10:16:35.533Z,13.33
2018-02-15T10:18:38.238Z,14.33
2018-02-15T10:20:40.886Z,14.60
2018-02-15T10:22:43.494Z,13.93
2018-02-15T10:24:46.118Z,13.00
2018-02-15T10:26:49.552Z,14.53
2018-02-15T10:28:52.211Z,14.02
2018-02-15T10:30:54.936Z,13.93
2018-02-15T10:32:58.343Z,14.60
2018-02-15T10:35:01.768Z,17.23
2018-02-15T10:37:05.281Z,15.10
2018-02-15T10:39:08.667Z,14.20
2018-02-15T10:41:11.301Z,13.63
2018-02-15T10:43:13.986Z,15.50
2018-02-15T10:45:17.353Z,14.83
2018-02-15T10:49:28.973Z,15.20
2018-02-15T10:51:31.660Z,13.87
2018-02-15T10:53:34.271Z,15.00
2018-02-15T10:55:36.887Z,13.90
2018-02-15T10:57:39.595Z,13.97
2018-02-15T10:59:42.356Z,14.50
2018-02-15T11:01:45.004Z,14.53
2018-02-15T11:03:53.443Z,14.53
2018-02-15T11:05:59.942Z,14.10
2018-02-15T11:08:02.597Z,14.77
2018-02-15T11:10:05.326Z,13.10
2018-02-15T11:12:07.978Z,15.43
2018-02-15T11:14:10.598Z,14.50
2018-02-15T11:16:13.316Z,15.43
2018-02-15T11:18:16.713Z,14.23
2018-02-15T11:20:19.430Z,14.47
2018-02-15T11:22:22.947Z,14.70
2018-02-15T11:24:26.347Z,13.13
2018-02-15T11:26:29.052Z,15.03
2018-02-15T11:28:31.710Z,13.93
2018-02-15T11:30:34.331Z,14.67
2018-02-15T11:32:37.046Z,14.57
2018-02-15T11:34:39.647Z,14.87
2018-02-15T11:36:43.108Z,15.13
2018-02-15T11:38:45.858Z,14.07
2018-02-15T11:40:49.197Z,15.07
2018-02-15T11:42:51.869Z,15.33
2018-02-15T11:44:55.248Z,13.80
2018-02-15T11:46:57.988Z,13.80
2018-02-15T11:49:01.493Z,14.50
2018-02-15T11:51:05.118Z,14.17
2018-02-15T11:53:08.494Z,14.40
2018-02-15T11:55:11.134Z,15.30
2018-02-15T11:57:14.553Z,14.07
2018-02-15T11:59:17.184Z,14.97
2018-02-15T12:01:19.837Z,14.60
2018-02-15T12:03:22.632Z,14.97
2018-02-15T12:05:26.001Z,17.37
2018-02-15T12:07:28.741Z,16.50
2018-02-15T12:09:32.109Z,15.00
2018-02-15T12:11:34.700Z,13.70
2018-02-15T12:13:37.352Z,15.10
2018-02-15T12:15:40.875Z,15.33
2018-02-15T12:17:44.320Z,15.93
2018-02-15T12:19:46.931Z,14.97
2018-02-15T12:21:49.672Z,15.00
2018-02-15T12:23:53.088Z,15.43
2018-02-15T12:25:56.617Z,14.70
2018-02-15T12:27:59.263Z,15.03
2018-02-15T12:30:01.905Z,15.40
2018-02-15T12:32:05.322Z,17.50
2018-02-15T12:34:08.682Z,16.47
2018-02-15T12:36:11.356Z,16.87
2018-02-15T12:38:14.035Z,16.50
2018-02-15T12:40:16.718Z,14.53
2018-02-15T12:42:20.163Z,15.70
2018-02-15T12:44:22.814Z,16.03
2018-02-15T12:46:26.199Z,15.47
2018-02-15T12:48:28.937Z,16.00
2018-02-15T12:50:32.353Z,17.50
2018-02-15T12:52:35.869Z,15.23
2018-02-15T12:54:39.279Z,15.10
2018-02-15T12:56:42.742Z,16.27
2018-02-15T12:58:45.453Z,16.73
2018-02-15T13:00:48.910Z,15.90
2018-02-15T13:02:52.359Z,14.90
2018-02-15T13:04:55.023Z,16.23
2018-02-15T13:06:58.436Z,14.43
2018-02-15T13:09:01.128Z,16.40
2018-02-15T13:11:04.648Z,15.13
2018-02-15T13:13:19.119Z,15.80
2018-02-15T13:15:34.230Z,15.27
2018-02-15T13:17:37.000Z,14.93
2018-02-15T13:19:52.109Z,16.00
2018-02-15T13:21:54.771Z,14.90
2018-02-15T13:23:58.203Z,15.20
2018-02-15T13:26:00.989Z,14.90
2018-02-15T13:28:16.331Z,14.67
2018-02-15T13:30:18.973Z,14.47
2018-02-15T13:32:22.490Z,14.00
2018-02-15T13:34:25.880Z,16.17
2018-02-15T13:36:28.598Z,14.87
2018-02-15T13:38:32.050Z,15.67
2018-02-15T13:40:34.694Z,14.63
2018-02-15T13:42:37.411Z,15.13
2018-02-15T13:44:41.384Z,14.53
2018-02-15T13:46:44.030Z,14.70
2018-02-15T13:48:47.553Z,15.20
2018-02-15T13:50:51.068Z,16.23
2018-02-15T13:52:54.447Z,15.33
2018-02-15T13:54:57.126Z,13.47
2018-02-15T13:56:59.712Z,14.63
2018-02-15T13:59:02.369Z,14.47
2018-02-15T14:01:05.066Z,14.17
2018-02-15T14:03:08.483Z,13.00
2018-02-15T14:05:11.900Z,14.63
2018-02-15T14:07:15.414Z,14.30
2018-02-15T14:09:18.788Z,14.07
2018-02-15T14:11:21.458Z,14.73
2018-02-15T14:13:24.223Z,13.77
2018-02-15T14:15:28.194Z,13.87
2018-02-15T14:17:30.973Z,14.87
2018-02-15T14:19:33.603Z,13.80
2018-02-15T14:21:36.248Z,13.90
2018-02-15T14:23:39.675Z,14.27
2018-02-15T14:25:42.350Z,13.70
2018-02-15T14:27:45.804Z,13.63
2018-02-15T14:29:48.405Z,13.27
2018-02-15T14:31:51.081Z,14.40
2018-02-15T14:33:53.753Z,12.90
2018-02-15T14:35:56.459Z,13.50
2018-02-15T14:37:59.855Z,12.63
2018-02-15T14:40:02.571Z,13.90
2018-02-15T14:42:05.939Z,13.57
2018-02-15T14:44:08.676Z,13.13
2018-02-15T14:46:12.530Z,14.20
2018-02-15T14:48:15.166Z,13.40
2018-02-15T14:50:17.825Z,13.30
2018-02-15T14:52:20.494Z,13.43
2018-02-15T14:54:23.859Z,13.07
2018-02-15T14:56:26.541Z,14.17
2018-02-15T14:58:29.201Z,13.83
2018-02-15T15:00:32.650Z,12.80
2018-02-15T15:02:35.309Z,13.80
2018-02-15T15:04:38.712Z,11.70
2018-02-15T15:06:41.390Z,15.53
2018-02-15T15:08:44.069Z,14.30
2018-02-15T15:10:46.684Z,15.20
2018-02-15T15:12:49.377Z,13.33
2018-02-15T15:14:52.040Z,14.50
2018-02-15T15:16:54.706Z,14.33
2018-02-15T15:18:58.083Z,13.70
2018-02-15T15:21:00.690Z,14.20
2018-02-15T15:23:03.426Z,13.63
2018-02-15T15:25:06.934Z,13.87
2018-02-15T15:27:10.346Z,13.40
2018-02-15T15:29:14.556Z,13.07
2018-02-15T15:31:18.535Z,14.00
2018-02-15T15:33:21.207Z,14.13
2018-02-15T15:35:24.622Z,13.70
2018-02-15T15:37:27.462Z,13.80
2018-02-15T15:39:30.065Z,13.33
2018-02-15T15:41:32.752Z,12.90
2018-02-15T15:43:35.403Z,13.03
2018-02-15T15:45:38.903Z,13.27
2018-02-15T15:47:41.587Z,13.33
2018-02-15T15:49:44.317Z,13.97
2018-02-15T15:51:47.742Z,11.97
2018-02-15T15:53:50.487Z,13.03
2018-02-15T15:55:53.887Z,13.40
2018-02-15T15:57:56.557Z,13.27
2018-02-15T16:00:00.115Z,13.00
2018-02-15T16:02:02.737Z,13.70
2018-02-15T16:04:05.472Z,12.87
2018-02-15T16:06:08.166Z,13.87
2018-02-15T16:08:11.667Z,13.20
2018-02-15T16:10:16.850Z,12.40
2018-02-15T16:12:19.722Z,12.40
2018-02-15T16:14:23.396Z,13.40
2018-02-15T16:16:26.026Z,13.30
2018-02-15T16:18:28.718Z,12.90
2018-02-15T16:20:31.351Z,14.03
2018-02-15T16:22:34.303Z,13.97
2018-02-15T16:24:37.042Z,13.53
2018-02-15T16:26:40.562Z,13.63
2018-02-15T16:28:44.070Z,14.50
2018-02-15T16:30:47.465Z,14.27
2018-02-15T16:32:50.182Z,13.80
2018-02-15T16:34:53.612Z,13.00
2018-02-15T16:36:56.397Z,12.83
2018-02-15T16:38:59.906Z,15.20
2018-02-15T16:41:02.612Z,14.50
2018-02-15T16:43:06.053Z,13.80
2018-02-15T16:45:08.758Z,16.43
2018-02-15T16:47:11.416Z,17.03
2018-02-15T16:49:14.815Z,18.73
2018-02-15T16:51:17.476Z,16.33
2018-02-15T16:53:20.238Z,14.73
2018-02-15T16:55:22.849Z,12.57
2018-02-15T16:57:25.517Z,15.00
2018-02-15T16:59:28.942Z,15.67
2018-02-15T17:01:32.351Z,15.83
2018-02-15T17:03:35.868Z,14.93
2018-02-15T17:05:39.282Z,15.77
2018-02-15T17:07:42.734Z,17.80
2018-02-15T17:09:45.351Z,14.73
2018-02-15T17:11:47.975Z,16.33
2018-02-15T17:13:50.791Z,17.57
2018-02-15T17:15:54.194Z,16.57
2018-02-15T17:17:56.852Z,19.43
2018-02-15T17:19:59.523Z,15.53
2018-02-15T17:22:02.198Z,16.77
2018-02-15T17:24:05.708Z,18.00
2018-02-15T17:26:08.422Z,17.50
2018-02-15T17:28:11.926Z,18.63
2018-02-15T17:30:15.366Z,20.37
2018-02-15T17:32:18.020Z,17.87
2018-02-15T17:34:20.635Z,19.47
2018-02-15T17:36:24.067Z,18.70
2018-02-15T17:38:26.721Z,17.70
2018-02-15T17:40:29.540Z,19.63
2018-02-15T17:42:32.393Z,18.33
2018-02-15T17:44:35.054Z,19.80
2018-02-15T17:46:38.452Z,20.70
2018-02-15T17:48:41.903Z,20.03
2018-02-15T17:50:44.536Z,19.70
2018-02-15T17:52:47.209Z,21.80
2018-02-15T17:54:49.871Z,31.10
2018-02-15T17:56:52.558Z,22.70
2018-02-15T17:58:57.279Z,21.57
2018-02-15T18:00:59.934Z,20.43
2018-02-15T18:03:02.579Z,20.60
2018-02-15T18:05:05.353Z,19.80
2018-02-15T18:07:08.008Z,19.97
2018-02-15T18:09:10.661Z,21.30
2018-02-15T18:11:13.288Z,24.97
2018-02-15T18:13:16.713Z,21.80
2018-02-15T18:15:19.353Z,20.90
2018-02-15T18:17:22.102Z,20.90
2018-02-15T18:19:25.617Z,22.27
2018-02-15T18:21:29.124Z,24.87
2018-02-15T18:23:31.789Z,22.67
2018-02-15T18:25:34.434Z,22.53
2018-02-15T18:27:37.118Z,23.53
2018-02-15T18:29:41.772Z,26.60
2018-02-15T18:31:44.451Z,23.77
2018-02-15T18:33:47.867Z,26.30
2018-02-15T18:35:51.386Z,23.50
2018-02-15T18:37:54.793Z,27.40
2018-02-15T18:39:57.454Z,28.43
2018-02-15T18:42:00.173Z,25.60
2018-02-15T18:44:02.897Z,25.40
2018-02-15T18:46:06.316Z,24.57
2018-02-15T18:48:08.982Z,25.57
2018-02-15T18:50:11.808Z,24.63
2018-02-15T18:52:15.242Z,24.30
2018-02-15T18:54:17.872Z,24.60
2018-02-15T18:56:20.533Z,26.50
2018-02-15T18:58:23.189Z,27.07
2018-02-15T19:00:25.814Z,23.97
2018-02-15T19:02:29.218Z,27.00
2018-02-15T19:04:32.635Z,25.20
2018-02-15T19:06:36.043Z,24.87
2018-02-15T19:08:39.573Z,25.17
2018-02-15T19:10:43.020Z,25.30
2018-02-15T19:12:45.673Z,27.10
2018-02-15T19:14:49.157Z,29.40
2018-02-15T19:16:51.923Z,48.10
2018-02-15T19:18:54.592Z,27.70
2018-02-15T19:20:57.977Z,27.63
2018-02-15T19:23:00.699Z,27.43
2018-02-15T19:25:04.161Z,28.40
2018-02-15T19:27:06.788Z,29.60
2018-02-15T19:29:09.506Z,28.83
2018-02-15T19:31:12.952Z,27.40
2018-02-15T19:33:15.618Z,28.40
2018-02-15T19:35:19.012Z,28.63
2018-02-15T19:37:21.743Z,28.87
2018-02-15T19:39:25.204Z,25.30
2018-02-15T19:41:27.958Z,26.87
2018-02-15T19:43:30.652Z,27.57
2018-02-15T19:45:34.111Z,31.27
2018-02-15T19:47:36.738Z,30.70
2018-02-15T19:49:39.456Z,28.50
2018-02-15T19:51:42.086Z,30.50
2018-02-15T19:53:44.730Z,26.50
2018-02-15T19:55:47.394Z,28.13
2018-02-15T19:57:50.040Z,27.27
2018-02-15T19:59:53.433Z,26.07
2018-02-15T20:01:57.187Z,25.60
2018-02-15T20:03:59.883Z,25.50
2018-02-15T20:06:03.330Z,28.50
2018-02-15T20:08:06.092Z,33.03
2018-02-15T20:10:09.610Z,28.10
2018-02-15T20:12:13.059Z,27.30
2018-02-15T20:14:15.769Z,28.87
2018-02-15T20:16:18.520Z,28.53
2018-02-15T20:18:22.037Z,28.63
2018-02-15T20:20:25.488Z,30.10
2018-02-15T20:22:28.149Z,28.43
2018-02-15T20:24:31.674Z,30.70
2018-02-15T20:26:40.100Z,28.87
2018-02-15T20:28:43.601Z,29.87
2018-02-15T20:30:47.159Z,30.47
2018-02-15T20:32:49.819Z,28.80
2018-02-15T20:34:53.264Z,30.27
2018-02-15T20:36:55.959Z,29.67
2018-02-15T20:39:04.257Z,30.73
2018-02-15T20:41:07.735Z,29.80
2018-02-15T20:43:10.470Z,29.20
2018-02-15T20:45:13.914Z,30.60
2018-02-15T20:47:16.574Z,31.87
2018-02-15T20:49:25.640Z,30.40
2018-02-15T20:51:34.688Z,30.27
2018-02-15T20:53:42.847Z,28.70
2018-02-15T20:55:46.230Z,31.10
2018-02-15T20:57:48.866Z,30.10
2018-02-15T20:59:51.604Z,29.67
2018-02-15T21:01:54.247Z,29.07
2018-02-15T21:03:56.892Z,29.00
2018-02-15T21:06:00.310Z,28.73
2018-02-15T21:08:03.825Z,29.10
2018-02-15T21:10:07.221Z,29.77
2018-02-15T21:12:09.877Z,30.50
2018-02-15T21:14:12.516Z,30.90
2018-02-15T21:16:15.152Z,29.37
2018-02-15T21:18:17.821Z,30.10
2018-02-15T21:20:21.230Z,29.63
2018-02-15T21:22:24.758Z,31.67
2018-02-15T21:24:28.386Z,30.70
2018-02-15T21:26:31.206Z,29.70
2018-02-15T21:28:34.069Z,29.83
2018-02-15T21:30:37.591Z,31.63
2018-02-15T21:32:41.070Z,29.30
2018-02-15T21:34:43.935Z,30.67
2018-02-15T21:36:46.711Z,31.03
2018-02-15T21:38:50.242Z,31.27
2018-02-15T21:40:52.952Z,30.40
2018-02-15T21:42:55.723Z,32.73
2018-02-15T21:44:59.234Z,33.17
2018-02-15T21:47:02.705Z,32.73
2018-02-15T21:49:05.470Z,32.43
2018-02-15T21:51:08.870Z,30.07
2018-02-15T21:53:12.346Z,31.00
2018-02-15T21:55:15.082Z,30.87
2018-02-15T21:57:18.472Z,33.73
2018-02-15T21:59:22.429Z,33.10
2018-02-15T22:01:25.832Z,33.40
2018-02-15T22:03:29.257Z,34.00
2018-02-15T22:05:32.760Z,33.03
2018-02-15T22:07:36.387Z,32.63
2018-02-15T22:09:39.905Z,31.70
2018-02-15T22:11:43.431Z,31.77
2018-02-15T22:13:46.120Z,31.80
2018-02-15T22:15:49.510Z,34.87
2018-02-15T22:17:52.373Z,32.77
2018-02-15T22:19:55.026Z,34.63
2018-02-15T22:21:58.546Z,34.60
2018-02-15T22:24:01.941Z,33.70
2018-02-15T22:26:04.681Z,36.27
2018-02-15T22:28:07.380Z,31.37
2018-02-15T22:30:10.003Z,34.00
2018-02-15T22:32:12.629Z,32.93
2018-02-15T22:34:15.485Z,32.70
2018-02-15T22:36:18.122Z,34.20
2018-02-15T22:38:20.737Z,35.90
2018-02-15T22:40:24.256Z,33.40
2018-02-15T22:42:27.812Z,33.20
2018-02-15T22:44:31.237Z,34.60
2018-02-15T22:46:33.986Z,32.30
2018-02-15T22:48:37.400Z,31.77
2018-02-15T22:50:40.811Z,32.23
2018-02-15T22:52:44.235Z,31.97
2018-02-15T22:54:47.636Z,31.07
2018-02-15T22:56:50.230Z,29.57
2018-02-15T22:58:52.870Z,29.80
2018-02-15T23:00:55.569Z,30.00
2018-02-15T23:02:58.193Z,27.50
2018-02-15T23:05:00.856Z,27.90
2018-02-15T23:07:03.485Z,29.87
2018-02-15T23:09:06.169Z,28.23
2018-02-15T23:11:08.912Z,29.67
2018-02-15T23:13:12.336Z,27.67
2018-02-15T23:15:15.852Z,27.60
2018-02-15T23:17:19.243Z,27.00
2018-02-15T23:19:21.896Z,26.10
2018-02-15T23:21:24.563Z,26.00
2018-02-15T23:23:27.965Z,28.00
2018-02-15T23:25:31.378Z,27.60
2018-02-15T23:27:34.068Z,27.43
2018-02-15T23:29:36.700Z,26.00
2018-02-15T23:31:39.362Z,27.07
2018-02-15T23:33:41.981Z,28.00
2018-02-15T23:35:44.621Z,27.97
2018-02-15T23:37:47.267Z,27.20
2018-02-15T23:39:50.739Z,26.80
2018-02-15T23:41:53.346Z,26.77
2018-02-15T23:43:55.942Z,26.80
2018-02-15T23:45:59.485Z,24.97
2018-02-15T23:48:02.870Z,27.30
2018-02-15T23:50:05.478Z,27.43
2018-02-15T23:52:08.121Z,27.30
2018-02-15T23:54:10.751Z,28.30
2018-02-15T23:56:14.222Z,27.60
2018-02-15T23:58:16.906Z,28.30
